sensor_id;sensor_type;location;lat;lon;timestamp;P1;durP1;ratioP1;P2;durP2;ratioP2
10416;SDS011;62605;49.432;8.680;2022-09-14T00:01:24;4.47;;;3.85;;
10416;SDS011;62605;49.432;8.680;2022-09-14T00:03:53;6.45;;;3.78;;
10416;SDS011;62605;49.432;8.680;2022-09-14T00:06:22;6.03;;;3.97;;
10416;SDS011;62605;49.432;8.680;2022-09-14T00:08:49;5.05;;;3.97;;
10416;SDS011;62605;49.432;8.680;2022-09-14T00:11:17;8.10;;;4.30;;
10416;SDS011;62605;49.432;8.680;2022-09-14T00:13:46;5.93;;;4.05;;
10416;SDS011;62605;49.432;8.680;2022-09-14T00:16:15;9.52;;;4.90;;
10416;SDS011;62605;49.432;8.680;2022-09-14T00:18:48;6.20;;;4.63;;
10416;SDS011;62605;49.432;8.680;2022-09-14T00:21:16;9.90;;;4.93;;
10416;SDS011;62605;49.432;8.680;2022-09-14T00:23:43;5.57;;;4.55;;
10416;SDS011;62605;49.432;8.680;2022-09-14T00:26:11;8.48;;;4.75;;
10416;SDS011;62605;49.432;8.680;2022-09-14T00:28:40;6.53;;;4.78;;
10416;SDS011;62605;49.432;8.680;2022-09-14T00:31:09;4.00;;;3.35;;
10416;SDS011;62605;49.432;8.680;2022-09-14T00:33:36;5.30;;;4.45;;
10416;SDS011;62605;49.432;8.680;2022-09-14T00:36:06;6.93;;;2.83;;
10416;SDS011;62605;49.432;8.680;2022-09-14T00:38:35;4.72;;;3.50;;
10416;SDS011;62605;49.432;8.680;2022-09-14T00:41:03;5.50;;;2.95;;
10416;SDS011;62605;49.432;8.680;2022-09-14T00:46:17;4.30;;;2.72;;
10416;SDS011;62605;49.432;8.680;2022-09-14T00:48:44;5.13;;;3.20;;
10416;SDS011;62605;49.432;8.680;2022-09-14T00:51:12;4.53;;;3.35;;
10416;SDS011;62605;49.432;8.680;2022-09-14T00:53:40;4.85;;;2.25;;
10416;SDS011;62605;49.432;8.680;2022-09-14T00:56:08;4.00;;;2.17;;
10416;SDS011;62605;49.432;8.680;2022-09-14T00:58:35;4.07;;;2.90;;
10416;SDS011;62605;49.432;8.680;2022-09-14T01:01:02;3.80;;;2.50;;
10416;SDS011;62605;49.432;8.680;2022-09-14T01:03:29;2.95;;;2.53;;
10416;SDS011;62605;49.432;8.680;2022-09-14T01:05:58;4.07;;;2.90;;
10416;SDS011;62605;49.432;8.680;2022-09-14T01:08:39;5.97;;;3.10;;
10416;SDS011;62605;49.432;8.680;2022-09-14T01:11:28;5.20;;;3.92;;
10416;SDS011;62605;49.432;8.680;2022-09-14T01:14:10;4.57;;;3.78;;
10416;SDS011;62605;49.432;8.680;2022-09-14T01:16:44;4.00;;;3.28;;
10416;SDS011;62605;49.432;8.680;2022-09-14T01:19:22;4.43;;;3.75;;
10416;SDS011;62605;49.432;8.680;2022-09-14T01:21:54;5.65;;;4.05;;
10416;SDS011;62605;49.432;8.680;2022-09-14T01:24:35;6.20;;;4.30;;
10416;SDS011;62605;49.432;8.680;2022-09-14T01:27:16;7.80;;;4.57;;
10416;SDS011;62605;49.432;8.680;2022-09-14T01:29:50;6.90;;;4.38;;
10416;SDS011;62605;49.432;8.680;2022-09-14T01:32:33;7.43;;;3.78;;
10416;SDS011;62605;49.432;8.680;2022-09-14T01:35:09;7.88;;;4.38;;
10416;SDS011;62605;49.432;8.680;2022-09-14T01:37:41;7.22;;;4.47;;
10416;SDS011;62605;49.432;8.680;2022-09-14T01:40:14;8.55;;;4.55;;
10416;SDS011;62605;49.432;8.680;2022-09-14T01:42:47;11.25;;;4.95;;
10416;SDS011;62605;49.432;8.680;2022-09-14T01:45:17;6.55;;;3.95;;
10416;SDS011;62605;49.432;8.680;2022-09-14T01:47:49;7.25;;;4.05;;
10416;SDS011;62605;49.432;8.680;2022-09-14T01:50:21;8.45;;;4.80;;
10416;SDS011;62605;49.432;8.680;2022-09-14T01:52:53;7.85;;;3.75;;
10416;SDS011;62605;49.432;8.680;2022-09-14T01:55:26;5.63;;;4.03;;
10416;SDS011;62605;49.432;8.680;2022-09-14T01:57:57;6.30;;;4.28;;
10416;SDS011;62605;49.432;8.680;2022-09-14T02:00:27;9.20;;;4.40;;
10416;SDS011;62605;49.432;8.680;2022-09-14T02:02:57;5.82;;;4.18;;
10416;SDS011;62605;49.432;8.680;2022-09-14T02:05:30;5.85;;;4.00;;
10416;SDS011;62605;49.432;8.680;2022-09-14T02:08:01;6.93;;;4.63;;
10416;SDS011;62605;49.432;8.680;2022-09-14T02:10:28;5.13;;;3.40;;
10416;SDS011;62605;49.432;8.680;2022-09-14T02:12:57;5.75;;;3.33;;
10416;SDS011;62605;49.432;8.680;2022-09-14T02:15:24;7.85;;;3.15;;
10416;SDS011;62605;49.432;8.680;2022-09-14T02:17:52;5.45;;;2.90;;
10416;SDS011;62605;49.432;8.680;2022-09-14T02:20:21;6.20;;;3.15;;
10416;SDS011;62605;49.432;8.680;2022-09-14T02:22:50;6.45;;;2.80;;
10416;SDS011;62605;49.432;8.680;2022-09-14T02:25:18;3.80;;;2.20;;
10416;SDS011;62605;49.432;8.680;2022-09-14T02:27:45;4.30;;;2.70;;
10416;SDS011;62605;49.432;8.680;2022-09-14T02:30:15;7.72;;;2.70;;
10416;SDS011;62605;49.432;8.680;2022-09-14T02:32:45;4.03;;;3.00;;
10416;SDS011;62605;49.432;8.680;2022-09-14T02:35:21;5.53;;;2.95;;
10416;SDS011;62605;49.432;8.680;2022-09-14T02:37:54;6.07;;;2.67;;
10416;SDS011;62605;49.432;8.680;2022-09-14T02:40:31;6.70;;;3.33;;
10416;SDS011;62605;49.432;8.680;2022-09-14T02:43:03;5.85;;;2.70;;
10416;SDS011;62605;49.432;8.680;2022-09-14T02:45:40;6.22;;;2.88;;
10416;SDS011;62605;49.432;8.680;2022-09-14T02:48:18;6.47;;;3.10;;
10416;SDS011;62605;49.432;8.680;2022-09-14T02:50:52;3.72;;;2.88;;
10416;SDS011;62605;49.432;8.680;2022-09-14T02:53:27;6.85;;;3.17;;
10416;SDS011;62605;49.432;8.680;2022-09-14T02:56:01;4.20;;;2.88;;
10416;SDS011;62605;49.432;8.680;2022-09-14T02:58:32;5.80;;;3.13;;
10416;SDS011;62605;49.432;8.680;2022-09-14T03:01:02;3.35;;;2.75;;
10416;SDS011;62605;49.432;8.680;2022-09-14T03:03:31;4.03;;;3.10;;
10416;SDS011;62605;49.432;8.680;2022-09-14T03:05:58;4.93;;;3.30;;
10416;SDS011;62605;49.432;8.680;2022-09-14T03:08:25;4.32;;;2.92;;
10416;SDS011;62605;49.432;8.680;2022-09-14T03:10:53;4.00;;;2.42;;
10416;SDS011;62605;49.432;8.680;2022-09-14T03:13:21;5.93;;;2.75;;
10416;SDS011;62605;49.432;8.680;2022-09-14T03:15:48;2.65;;;2.10;;
10416;SDS011;62605;49.432;8.680;2022-09-14T03:18:16;4.93;;;2.92;;
10416;SDS011;62605;49.432;8.680;2022-09-14T03:20:44;4.97;;;3.15;;
10416;SDS011;62605;49.432;8.680;2022-09-14T03:23:11;5.50;;;2.80;;
10416;SDS011;62605;49.432;8.680;2022-09-14T03:25:40;7.07;;;3.25;;
10416;SDS011;62605;49.432;8.680;2022-09-14T03:28:09;3.85;;;2.50;;
10416;SDS011;62605;49.432;8.680;2022-09-14T03:30:36;3.20;;;2.30;;
10416;SDS011;62605;49.432;8.680;2022-09-14T03:33:04;2.20;;;1.73;;
10416;SDS011;62605;49.432;8.680;2022-09-14T03:35:32;8.45;;;2.85;;
10416;SDS011;62605;49.432;8.680;2022-09-14T03:37:59;2.92;;;2.42;;
10416;SDS011;62605;49.432;8.680;2022-09-14T03:40:27;2.40;;;2.20;;
10416;SDS011;62605;49.432;8.680;2022-09-14T03:42:55;5.05;;;2.40;;
10416;SDS011;62605;49.432;8.680;2022-09-14T03:45:22;4.95;;;2.25;;
10416;SDS011;62605;49.432;8.680;2022-09-14T03:47:49;6.40;;;2.85;;
10416;SDS011;62605;49.432;8.680;2022-09-14T03:50:16;3.00;;;1.67;;
10416;SDS011;62605;49.432;8.680;2022-09-14T03:52:45;1.73;;;1.45;;
10416;SDS011;62605;49.432;8.680;2022-09-14T03:55:13;2.00;;;1.67;;
10416;SDS011;62605;49.432;8.680;2022-09-14T03:57:40;2.22;;;1.50;;
10416;SDS011;62605;49.432;8.680;2022-09-14T04:00:08;3.70;;;1.70;;
10416;SDS011;62605;49.432;8.680;2022-09-14T04:02:36;4.03;;;1.67;;
10416;SDS011;62605;49.432;8.680;2022-09-14T04:05:03;2.65;;;1.52;;
10416;SDS011;62605;49.432;8.680;2022-09-14T04:07:31;2.97;;;1.80;;
10416;SDS011;62605;49.432;8.680;2022-09-14T04:10:00;4.07;;;3.10;;
10416;SDS011;62605;49.432;8.680;2022-09-14T04:12:28;5.30;;;4.07;;
10416;SDS011;62605;49.432;8.680;2022-09-14T04:14:58;4.57;;;3.30;;
10416;SDS011;62605;49.432;8.680;2022-09-14T04:17:26;7.13;;;4.38;;
10416;SDS011;62605;49.432;8.680;2022-09-14T04:19:53;8.55;;;4.90;;
10416;SDS011;62605;49.432;8.680;2022-09-14T04:22:20;8.25;;;5.43;;
10416;SDS011;62605;49.432;8.680;2022-09-14T04:24:47;9.02;;;6.28;;
10416;SDS011;62605;49.432;8.680;2022-09-14T04:27:16;8.52;;;5.35;;
10416;SDS011;62605;49.432;8.680;2022-09-14T04:29:43;10.13;;;6.47;;
10416;SDS011;62605;49.432;8.680;2022-09-14T04:32:10;10.27;;;6.15;;
10416;SDS011;62605;49.432;8.680;2022-09-14T04:34:37;10.35;;;6.43;;
10416;SDS011;62605;49.432;8.680;2022-09-14T04:37:04;10.90;;;6.47;;
10416;SDS011;62605;49.432;8.680;2022-09-14T04:39:31;11.13;;;6.78;;
10416;SDS011;62605;49.432;8.680;2022-09-14T04:41:58;11.77;;;6.38;;
10416;SDS011;62605;49.432;8.680;2022-09-14T04:44:27;10.02;;;6.97;;
10416;SDS011;62605;49.432;8.680;2022-09-14T04:46:54;8.02;;;6.18;;
10416;SDS011;62605;49.432;8.680;2022-09-14T04:49:21;10.07;;;5.90;;
10416;SDS011;62605;49.432;8.680;2022-09-14T04:51:48;11.45;;;6.30;;
10416;SDS011;62605;49.432;8.680;2022-09-14T04:54:16;9.48;;;5.93;;
10416;SDS011;62605;49.432;8.680;2022-09-14T04:56:44;9.48;;;6.35;;
10416;SDS011;62605;49.432;8.680;2022-09-14T04:59:12;9.70;;;6.18;;
10416;SDS011;62605;49.432;8.680;2022-09-14T05:01:43;8.60;;;6.68;;
10416;SDS011;62605;49.432;8.680;2022-09-14T05:04:11;8.25;;;6.28;;
10416;SDS011;62605;49.432;8.680;2022-09-14T05:06:39;10.10;;;6.72;;
10416;SDS011;62605;49.432;8.680;2022-09-14T05:09:10;9.32;;;6.45;;
10416;SDS011;62605;49.432;8.680;2022-09-14T05:11:39;10.60;;;6.72;;
10416;SDS011;62605;49.432;8.680;2022-09-14T05:14:08;11.55;;;7.22;;
10416;SDS011;62605;49.432;8.680;2022-09-14T05:16:37;9.85;;;7.00;;
10416;SDS011;62605;49.432;8.680;2022-09-14T05:19:07;13.77;;;7.15;;
10416;SDS011;62605;49.432;8.680;2022-09-14T05:21:37;10.57;;;7.45;;
10416;SDS011;62605;49.432;8.680;2022-09-14T05:24:05;8.82;;;6.60;;
10416;SDS011;62605;49.432;8.680;2022-09-14T05:26:38;10.25;;;6.72;;
10416;SDS011;62605;49.432;8.680;2022-09-14T05:29:06;9.82;;;7.03;;
10416;SDS011;62605;49.432;8.680;2022-09-14T05:31:37;11.35;;;7.63;;
10416;SDS011;62605;49.432;8.680;2022-09-14T05:34:04;10.27;;;6.82;;
10416;SDS011;62605;49.432;8.680;2022-09-14T05:36:34;11.23;;;7.30;;
10416;SDS011;62605;49.432;8.680;2022-09-14T05:39:01;13.60;;;7.40;;
10416;SDS011;62605;49.432;8.680;2022-09-14T05:41:29;11.15;;;7.68;;
10416;SDS011;62605;49.432;8.680;2022-09-14T05:43:56;10.55;;;7.45;;
10416;SDS011;62605;49.432;8.680;2022-09-14T05:46:24;13.35;;;8.50;;
10416;SDS011;62605;49.432;8.680;2022-09-14T05:48:51;15.65;;;8.43;;
10416;SDS011;62605;49.432;8.680;2022-09-14T05:51:20;11.40;;;7.68;;
10416;SDS011;62605;49.432;8.680;2022-09-14T05:53:49;14.93;;;8.05;;
10416;SDS011;62605;49.432;8.680;2022-09-14T05:56:18;11.70;;;7.32;;
10416;SDS011;62605;49.432;8.680;2022-09-14T05:58:46;9.60;;;6.90;;
10416;SDS011;62605;49.432;8.680;2022-09-14T06:01:14;9.10;;;5.75;;
10416;SDS011;62605;49.432;8.680;2022-09-14T06:03:43;11.63;;;5.90;;
10416;SDS011;62605;49.432;8.680;2022-09-14T06:06:11;8.18;;;5.65;;
10416;SDS011;62605;49.432;8.680;2022-09-14T06:08:41;9.93;;;5.38;;
10416;SDS011;62605;49.432;8.680;2022-09-14T06:11:10;7.50;;;4.70;;
10416;SDS011;62605;49.432;8.680;2022-09-14T06:13:40;7.53;;;5.20;;
10416;SDS011;62605;49.432;8.680;2022-09-14T06:16:08;8.40;;;4.95;;
10416;SDS011;62605;49.432;8.680;2022-09-14T06:18:36;8.80;;;5.57;;
10416;SDS011;62605;49.432;8.680;2022-09-14T06:21:05;7.68;;;4.30;;
10416;SDS011;62605;49.432;8.680;2022-09-14T06:23:33;8.80;;;4.90;;
10416;SDS011;62605;49.432;8.680;2022-09-14T06:26:01;7.63;;;4.55;;
10416;SDS011;62605;49.432;8.680;2022-09-14T06:28:31;6.95;;;4.65;;
10416;SDS011;62605;49.432;8.680;2022-09-14T06:30:59;5.65;;;4.13;;
10416;SDS011;62605;49.432;8.680;2022-09-14T06:33:28;7.20;;;3.67;;
10416;SDS011;62605;49.432;8.680;2022-09-14T06:35:56;5.88;;;3.60;;
10416;SDS011;62605;49.432;8.680;2022-09-14T06:38:25;6.43;;;3.22;;
10416;SDS011;62605;49.432;8.680;2022-09-14T06:40:53;5.03;;;3.70;;
10416;SDS011;62605;49.432;8.680;2022-09-14T06:43:24;5.85;;;3.40;;
10416;SDS011;62605;49.432;8.680;2022-09-14T06:46:01;6.30;;;3.72;;
10416;SDS011;62605;49.432;8.680;2022-09-14T06:48:31;3.95;;;3.63;;
10416;SDS011;62605;49.432;8.680;2022-09-14T06:51:00;7.70;;;3.92;;
10416;SDS011;62605;49.432;8.680;2022-09-14T06:53:37;6.78;;;4.35;;
10416;SDS011;62605;49.432;8.680;2022-09-14T06:56:04;6.13;;;4.28;;
10416;SDS011;62605;49.432;8.680;2022-09-14T06:58:31;6.90;;;4.13;;
10416;SDS011;62605;49.432;8.680;2022-09-14T07:01:01;7.43;;;4.82;;
10416;SDS011;62605;49.432;8.680;2022-09-14T07:03:30;7.30;;;4.60;;
10416;SDS011;62605;49.432;8.680;2022-09-14T07:06:01;7.63;;;4.82;;
10416;SDS011;62605;49.432;8.680;2022-09-14T07:08:30;7.63;;;4.85;;
10416;SDS011;62605;49.432;8.680;2022-09-14T07:10:58;6.82;;;4.35;;
10416;SDS011;62605;49.432;8.680;2022-09-14T07:13:25;7.60;;;4.70;;
10416;SDS011;62605;49.432;8.680;2022-09-14T07:15:53;7.07;;;5.10;;
10416;SDS011;62605;49.432;8.680;2022-09-14T07:18:22;6.47;;;4.78;;
10416;SDS011;62605;49.432;8.680;2022-09-14T07:20:59;8.57;;;6.28;;
10416;SDS011;62605;49.432;8.680;2022-09-14T07:23:27;7.07;;;5.63;;
10416;SDS011;62605;49.432;8.680;2022-09-14T07:26:01;10.45;;;6.15;;
10416;SDS011;62605;49.432;8.680;2022-09-14T07:28:29;6.97;;;5.63;;
10416;SDS011;62605;49.432;8.680;2022-09-14T07:30:57;7.07;;;6.07;;
10416;SDS011;62605;49.432;8.680;2022-09-14T07:33:25;9.88;;;6.15;;
10416;SDS011;62605;49.432;8.680;2022-09-14T07:35:53;8.20;;;5.53;;
10416;SDS011;62605;49.432;8.680;2022-09-14T07:38:21;6.13;;;5.53;;
10416;SDS011;62605;49.432;8.680;2022-09-14T07:40:48;6.00;;;5.30;;
10416;SDS011;62605;49.432;8.680;2022-09-14T07:43:15;6.40;;;5.32;;
10416;SDS011;62605;49.432;8.680;2022-09-14T07:45:42;5.95;;;4.97;;
10416;SDS011;62605;49.432;8.680;2022-09-14T07:48:09;6.93;;;5.43;;
10416;SDS011;62605;49.432;8.680;2022-09-14T07:50:37;7.50;;;5.90;;
10416;SDS011;62605;49.432;8.680;2022-09-14T07:53:04;6.45;;;5.28;;
10416;SDS011;62605;49.432;8.680;2022-09-14T07:55:31;7.20;;;5.57;;
10416;SDS011;62605;49.432;8.680;2022-09-14T07:57:58;6.18;;;5.35;;
10416;SDS011;62605;49.432;8.680;2022-09-14T08:00:26;6.10;;;5.32;;
10416;SDS011;62605;49.432;8.680;2022-09-14T08:02:53;6.20;;;4.70;;
10416;SDS011;62605;49.432;8.680;2022-09-14T08:05:22;6.97;;;5.00;;
10416;SDS011;62605;49.432;8.680;2022-09-14T08:07:53;4.90;;;4.00;;
10416;SDS011;62605;49.432;8.680;2022-09-14T08:10:21;4.70;;;4.30;;
10416;SDS011;62605;49.432;8.680;2022-09-14T08:12:50;5.97;;;4.32;;
10416;SDS011;62605;49.432;8.680;2022-09-14T08:15:17;5.18;;;4.30;;
10416;SDS011;62605;49.432;8.680;2022-09-14T08:17:45;4.22;;;3.83;;
10416;SDS011;62605;49.432;8.680;2022-09-14T08:20:13;5.55;;;4.72;;
10416;SDS011;62605;49.432;8.680;2022-09-14T08:22:41;6.63;;;4.13;;
10416;SDS011;62605;49.432;8.680;2022-09-14T08:25:10;5.95;;;4.07;;
10416;SDS011;62605;49.432;8.680;2022-09-14T08:27:37;6.35;;;4.15;;
10416;SDS011;62605;49.432;8.680;2022-09-14T08:30:05;5.03;;;4.43;;
10416;SDS011;62605;49.432;8.680;2022-09-14T08:32:34;6.03;;;4.22;;
10416;SDS011;62605;49.432;8.680;2022-09-14T08:35:01;7.03;;;4.75;;
10416;SDS011;62605;49.432;8.680;2022-09-14T08:37:28;9.07;;;5.18;;
10416;SDS011;62605;49.432;8.680;2022-09-14T08:39:55;6.80;;;5.15;;
10416;SDS011;62605;49.432;8.680;2022-09-14T08:42:23;8.43;;;5.50;;
10416;SDS011;62605;49.432;8.680;2022-09-14T08:44:51;8.82;;;5.80;;
10416;SDS011;62605;49.432;8.680;2022-09-14T08:47:22;10.32;;;5.85;;
10416;SDS011;62605;49.432;8.680;2022-09-14T08:49:53;10.13;;;6.07;;
10416;SDS011;62605;49.432;8.680;2022-09-14T08:52:27;9.02;;;6.30;;
10416;SDS011;62605;49.432;8.680;2022-09-14T08:54:59;11.27;;;5.93;;
10416;SDS011;62605;49.432;8.680;2022-09-14T08:57:45;8.68;;;5.78;;
10416;SDS011;62605;49.432;8.680;2022-09-14T09:00:16;13.93;;;6.53;;
10416;SDS011;62605;49.432;8.680;2022-09-14T09:02:58;9.45;;;6.70;;
10416;SDS011;62605;49.432;8.680;2022-09-14T09:05:47;12.27;;;6.18;;
10416;SDS011;62605;49.432;8.680;2022-09-14T09:08:18;9.48;;;5.95;;
10416;SDS011;62605;49.432;8.680;2022-09-14T09:10:51;10.40;;;6.07;;
10416;SDS011;62605;49.432;8.680;2022-09-14T09:13:22;9.07;;;5.80;;
10416;SDS011;62605;49.432;8.680;2022-09-14T09:15:56;9.63;;;6.22;;
10416;SDS011;62605;49.432;8.680;2022-09-14T09:18:27;8.10;;;5.97;;
10416;SDS011;62605;49.432;8.680;2022-09-14T09:21:03;10.18;;;5.93;;
10416;SDS011;62605;49.432;8.680;2022-09-14T09:23:33;11.50;;;5.82;;
10416;SDS011;62605;49.432;8.680;2022-09-14T09:26:02;8.70;;;5.93;;
10416;SDS011;62605;49.432;8.680;2022-09-14T09:28:36;6.78;;;5.82;;
10416;SDS011;62605;49.432;8.680;2022-09-14T09:31:12;7.82;;;5.32;;
10416;SDS011;62605;49.432;8.680;2022-09-14T09:33:41;9.30;;;5.75;;
10416;SDS011;62605;49.432;8.680;2022-09-14T09:36:10;6.85;;;5.43;;
10416;SDS011;62605;49.432;8.680;2022-09-14T09:38:39;8.02;;;6.00;;
10416;SDS011;62605;49.432;8.680;2022-09-14T09:41:10;9.38;;;6.20;;
10416;SDS011;62605;49.432;8.680;2022-09-14T09:43:58;7.95;;;6.00;;
10416;SDS011;62605;49.432;8.680;2022-09-14T09:46:27;15.65;;;6.95;;
10416;SDS011;62605;49.432;8.680;2022-09-14T09:48:56;7.13;;;5.45;;
10416;SDS011;62605;49.432;8.680;2022-09-14T09:51:26;7.25;;;5.45;;
10416;SDS011;62605;49.432;8.680;2022-09-14T09:53:55;7.20;;;5.43;;
10416;SDS011;62605;49.432;8.680;2022-09-14T09:56:33;10.38;;;5.63;;
10416;SDS011;62605;49.432;8.680;2022-09-14T09:59:05;6.80;;;5.40;;
10416;SDS011;62605;49.432;8.680;2022-09-14T10:01:48;7.90;;;5.28;;
10416;SDS011;62605;49.432;8.680;2022-09-14T10:04:19;7.57;;;4.97;;
10416;SDS011;62605;49.432;8.680;2022-09-14T10:06:48;6.22;;;5.00;;
10416;SDS011;62605;49.432;8.680;2022-09-14T10:09:17;10.77;;;5.47;;
10416;SDS011;62605;49.432;8.680;2022-09-14T10:11:45;8.32;;;5.25;;
10416;SDS011;62605;49.432;8.680;2022-09-14T10:14:22;6.68;;;5.25;;
10416;SDS011;62605;49.432;8.680;2022-09-14T10:16:51;9.82;;;5.72;;
10416;SDS011;62605;49.432;8.680;2022-09-14T10:19:20;6.95;;;5.25;;
10416;SDS011;62605;49.432;8.680;2022-09-14T10:22:00;7.93;;;4.57;;
10416;SDS011;62605;49.432;8.680;2022-09-14T10:24:31;6.03;;;4.57;;
10416;SDS011;62605;49.432;8.680;2022-09-14T10:26:59;5.28;;;4.72;;
10416;SDS011;62605;49.432;8.680;2022-09-14T10:29:37;4.93;;;4.00;;
10416;SDS011;62605;49.432;8.680;2022-09-14T10:32:13;5.35;;;4.35;;
10416;SDS011;62605;49.432;8.680;2022-09-14T10:34:44;6.13;;;4.53;;
10416;SDS011;62605;49.432;8.680;2022-09-14T10:37:24;6.03;;;4.38;;
10416;SDS011;62605;49.432;8.680;2022-09-14T10:40:02;6.25;;;5.20;;
10416;SDS011;62605;49.432;8.680;2022-09-14T10:42:41;8.05;;;5.03;;
10416;SDS011;62605;49.432;8.680;2022-09-14T10:45:18;6.03;;;4.60;;
10416;SDS011;62605;49.432;8.680;2022-09-14T10:48:04;7.57;;;5.03;;
10416;SDS011;62605;49.432;8.680;2022-09-14T10:50:48;7.95;;;4.78;;
10416;SDS011;62605;49.432;8.680;2022-09-14T10:53:27;5.97;;;4.57;;
10416;SDS011;62605;49.432;8.680;2022-09-14T10:56:04;4.65;;;4.25;;
10416;SDS011;62605;49.432;8.680;2022-09-14T10:58:43;5.10;;;4.50;;
10416;SDS011;62605;49.432;8.680;2022-09-14T11:01:29;6.10;;;4.72;;
10416;SDS011;62605;49.432;8.680;2022-09-14T11:04:11;7.97;;;4.45;;
10416;SDS011;62605;49.432;8.680;2022-09-14T11:07:01;5.93;;;4.22;;
10416;SDS011;62605;49.432;8.680;2022-09-14T11:09:36;4.75;;;4.25;;
10416;SDS011;62605;49.432;8.680;2022-09-14T11:12:08;5.97;;;4.07;;
10416;SDS011;62605;49.432;8.680;2022-09-14T11:14:46;6.43;;;3.80;;
10416;SDS011;62605;49.432;8.680;2022-09-14T11:17:32;6.00;;;4.22;;
10416;SDS011;62605;49.432;8.680;2022-09-14T11:20:11;9.13;;;4.20;;
10416;SDS011;62605;49.432;8.680;2022-09-14T11:22:51;4.53;;;4.13;;
10416;SDS011;62605;49.432;8.680;2022-09-14T11:25:30;4.28;;;3.45;;
10416;SDS011;62605;49.432;8.680;2022-09-14T11:28:03;4.35;;;3.95;;
10416;SDS011;62605;49.432;8.680;2022-09-14T11:30:36;6.93;;;3.97;;
10416;SDS011;62605;49.432;8.680;2022-09-14T11:33:10;8.23;;;3.90;;
10416;SDS011;62605;49.432;8.680;2022-09-14T11:35:44;5.32;;;3.50;;
10416;SDS011;62605;49.432;8.680;2022-09-14T11:38:16;5.55;;;3.72;;
10416;SDS011;62605;49.432;8.680;2022-09-14T11:40:46;5.30;;;3.80;;
10416;SDS011;62605;49.432;8.680;2022-09-14T11:43:17;4.18;;;3.53;;
10416;SDS011;62605;49.432;8.680;2022-09-14T11:45:49;4.32;;;3.80;;
10416;SDS011;62605;49.432;8.680;2022-09-14T11:48:27;3.25;;;2.95;;
10416;SDS011;62605;49.432;8.680;2022-09-14T11:50:59;7.53;;;3.13;;
10416;SDS011;62605;49.432;8.680;2022-09-14T11:53:31;5.00;;;3.28;;
10416;SDS011;62605;49.432;8.680;2022-09-14T11:55:59;6.20;;;3.45;;
10416;SDS011;62605;49.432;8.680;2022-09-14T11:58:26;4.30;;;3.67;;
10416;SDS011;62605;49.432;8.680;2022-09-14T12:04:08;6.07;;;3.70;;
10416;SDS011;62605;49.432;8.680;2022-09-14T12:06:45;5.65;;;3.55;;
10416;SDS011;62605;49.432;8.680;2022-09-14T12:12:32;4.75;;;3.33;;
10416;SDS011;62605;49.432;8.680;2022-09-14T12:15:03;3.53;;;2.90;;
10416;SDS011;62605;49.432;8.680;2022-09-14T12:17:42;3.95;;;3.17;;
10416;SDS011;62605;49.432;8.680;2022-09-14T12:29:18;4.78;;;3.30;;
10416;SDS011;62605;49.432;8.680;2022-09-14T12:37:56;3.58;;;3.00;;
10416;SDS011;62605;49.432;8.680;2022-09-14T12:40:34;3.78;;;3.45;;
10416;SDS011;62605;49.432;8.680;2022-09-14T12:46:32;4.45;;;3.05;;
10416;SDS011;62605;49.432;8.680;2022-09-14T12:49:15;6.05;;;3.20;;
10416;SDS011;62605;49.432;8.680;2022-09-14T12:52:02;4.45;;;3.28;;
10416;SDS011;62605;49.432;8.680;2022-09-14T12:54:43;7.03;;;3.47;;
10416;SDS011;62605;49.432;8.680;2022-09-14T12:57:26;5.72;;;3.40;;
10416;SDS011;62605;49.432;8.680;2022-09-14T13:00:02;4.72;;;3.50;;
10416;SDS011;62605;49.432;8.680;2022-09-14T13:02:56;9.23;;;5.80;;
10416;SDS011;62605;49.432;8.680;2022-09-14T13:05:47;5.55;;;3.60;;
10416;SDS011;62605;49.432;8.680;2022-09-14T13:08:16;4.47;;;3.70;;
10416;SDS011;62605;49.432;8.680;2022-09-14T13:10:55;4.28;;;3.63;;
10416;SDS011;62605;49.432;8.680;2022-09-14T13:13:24;6.95;;;3.63;;
10416;SDS011;62605;49.432;8.680;2022-09-14T13:15:56;5.60;;;3.88;;
10416;SDS011;62605;49.432;8.680;2022-09-14T13:18:26;7.10;;;3.88;;
10416;SDS011;62605;49.432;8.680;2022-09-14T13:20:56;7.97;;;3.88;;
10416;SDS011;62605;49.432;8.680;2022-09-14T13:23:26;6.80;;;3.83;;
10416;SDS011;62605;49.432;8.680;2022-09-14T13:25:56;4.90;;;3.65;;
10416;SDS011;62605;49.432;8.680;2022-09-14T13:28:25;3.88;;;3.03;;
10416;SDS011;62605;49.432;8.680;2022-09-14T13:30:56;5.03;;;4.03;;
10416;SDS011;62605;49.432;8.680;2022-09-14T13:33:24;7.03;;;3.97;;
10416;SDS011;62605;49.432;8.680;2022-09-14T13:35:53;6.90;;;3.90;;
10416;SDS011;62605;49.432;8.680;2022-09-14T13:38:24;6.80;;;3.92;;
10416;SDS011;62605;49.432;8.680;2022-09-14T13:40:53;9.43;;;4.25;;
10416;SDS011;62605;49.432;8.680;2022-09-14T13:43:29;4.13;;;3.65;;
10416;SDS011;62605;49.432;8.680;2022-09-14T13:45:57;2.15;;;1.52;;
10416;SDS011;62605;49.432;8.680;2022-09-14T13:48:24;1.40;;;1.30;;
10416;SDS011;62605;49.432;8.680;2022-09-14T13:50:51;4.80;;;1.17;;
10416;SDS011;62605;49.432;8.680;2022-09-14T13:53:37;2.22;;;1.30;;
10416;SDS011;62605;49.432;8.680;2022-09-14T13:56:26;1.70;;;0.93;;
10416;SDS011;62605;49.432;8.680;2022-09-14T13:59:16;1.85;;;1.35;;
10416;SDS011;62605;49.432;8.680;2022-09-14T14:01:54;1.33;;;1.20;;
10416;SDS011;62605;49.432;8.680;2022-09-14T14:04:28;1.30;;;1.20;;
10416;SDS011;62605;49.432;8.680;2022-09-14T14:07:03;3.25;;;1.30;;
10416;SDS011;62605;49.432;8.680;2022-09-14T14:09:43;1.48;;;1.00;;
10416;SDS011;62605;49.432;8.680;2022-09-14T14:12:20;3.72;;;1.67;;
10416;SDS011;62605;49.432;8.680;2022-09-14T14:14:55;3.22;;;1.40;;
10416;SDS011;62605;49.432;8.680;2022-09-14T14:17:29;2.15;;;1.13;;
10416;SDS011;62605;49.432;8.680;2022-09-14T14:19:59;1.63;;;1.52;;
10416;SDS011;62605;49.432;8.680;2022-09-14T14:22:52;1.45;;;1.10;;
10416;SDS011;62605;49.432;8.680;2022-09-14T14:25:23;1.33;;;1.10;;
10416;SDS011;62605;49.432;8.680;2022-09-14T14:27:57;3.83;;;1.65;;
10416;SDS011;62605;49.432;8.680;2022-09-14T14:30:27;1.42;;;1.27;;
10416;SDS011;62605;49.432;8.680;2022-09-14T14:32:56;1.65;;;1.15;;
10416;SDS011;62605;49.432;8.680;2022-09-14T14:35:25;2.33;;;1.17;;
10416;SDS011;62605;49.432;8.680;2022-09-14T14:37:54;1.38;;;1.27;;
10416;SDS011;62605;49.432;8.680;2022-09-14T14:40:22;1.35;;;1.20;;
10416;SDS011;62605;49.432;8.680;2022-09-14T14:42:51;2.25;;;1.70;;
10416;SDS011;62605;49.432;8.680;2022-09-14T14:45:20;2.08;;;1.33;;
10416;SDS011;62605;49.432;8.680;2022-09-14T14:47:52;1.08;;;1.08;;
10416;SDS011;62605;49.432;8.680;2022-09-14T14:50:20;3.72;;;1.27;;
10416;SDS011;62605;49.432;8.680;2022-09-14T14:52:49;1.48;;;1.20;;
10416;SDS011;62605;49.432;8.680;2022-09-14T14:55:16;1.30;;;1.20;;
10416;SDS011;62605;49.432;8.680;2022-09-14T14:57:44;1.48;;;1.05;;
10416;SDS011;62605;49.432;8.680;2022-09-14T15:00:12;1.88;;;1.30;;
10416;SDS011;62605;49.432;8.680;2022-09-14T15:02:42;1.38;;;1.27;;
10416;SDS011;62605;49.432;8.680;2022-09-14T15:05:11;1.70;;;1.20;;
10416;SDS011;62605;49.432;8.680;2022-09-14T15:07:39;1.58;;;1.10;;
10416;SDS011;62605;49.432;8.680;2022-09-14T15:10:07;2.10;;;1.23;;
10416;SDS011;62605;49.432;8.680;2022-09-14T15:12:36;1.30;;;1.20;;
10416;SDS011;62605;49.432;8.680;2022-09-14T15:15:04;1.33;;;1.23;;
10416;SDS011;62605;49.432;8.680;2022-09-14T15:17:33;2.25;;;1.08;;
10416;SDS011;62605;49.432;8.680;2022-09-14T15:20:00;1.67;;;1.15;;
10416;SDS011;62605;49.432;8.680;2022-09-14T15:22:29;1.65;;;1.13;;
10416;SDS011;62605;49.432;8.680;2022-09-14T15:24:58;1.60;;;1.20;;
10416;SDS011;62605;49.432;8.680;2022-09-14T15:27:32;1.67;;;1.48;;
10416;SDS011;62605;49.432;8.680;2022-09-14T15:29:59;1.52;;;1.20;;
10416;SDS011;62605;49.432;8.680;2022-09-14T15:32:28;1.50;;;1.10;;
10416;SDS011;62605;49.432;8.680;2022-09-14T15:34:55;1.65;;;1.23;;
10416;SDS011;62605;49.432;8.680;2022-09-14T15:37:22;1.85;;;1.10;;